sensor_id;sensor_type;location;lat;lon;timestamp;temperature;humidity
48376;DHT22;34178;50.904;11.560;2023-07-30T00:01:41;16.90;99.90
48376;DHT22;34178;50.904;11.560;2023-07-30T00:04:06;16.90;99.90
48376;DHT22;34178;50.904;11.560;2023-07-30T00:06:32;16.80;99.90
48376;DHT22;34178;50.904;11.560;2023-07-30T00:08:57;16.80;99.90
48376;DHT22;34178;50.904;11.560;2023-07-30T00:11:23;16.80;99.90
48376;DHT22;34178;50.904;11.560;2023-07-30T00:13:49;16.70;99.90
48376;DHT22;34178;50.904;11.560;2023-07-30T00:16:14;16.70;99.90
48376;DHT22;34178;50.904;11.560;2023-07-30T00:18:40;16.70;99.90
48376;DHT22;34178;50.904;11.560;2023-07-30T00:21:06;16.80;99.90
48376;DHT22;34178;50.904;11.560;2023-07-30T00:23:31;16.80;99.90
48376;DHT22;34178;50.904;11.560;2023-07-30T00:25:57;16.90;99.90
48376;DHT22;34178;50.904;11.560;2023-07-30T00:28:23;16.80;99.90
48376;DHT22;34178;50.904;11.560;2023-07-30T00:30:48;16.90;99.90
48376;DHT22;34178;50.904;11.560;2023-07-30T00:33:14;16.80;99.90
48376;DHT22;34178;50.904;11.560;2023-07-30T00:35:39;16.80;99.90
48376;DHT22;34178;50.904;11.560;2023-07-30T00:38:05;16.80;99.90
48376;DHT22;34178;50.904;11.560;2023-07-30T00:40:31;16.80;99.90
48376;DHT22;34178;50.904;11.560;2023-07-30T00:42:56;16.80;99.90
48376;DHT22;34178;50.904;11.560;2023-07-30T00:45:22;16.80;99.90
48376;DHT22;34178;50.904;11.560;2023-07-30T00:47:48;16.80;99.90
48376;DHT22;34178;50.904;11.560;2023-07-30T00:50:14;16.80;99.90
48376;DHT22;34178;50.904;11.560;2023-07-30T00:52:41;16.70;99.90
48376;DHT22;34178;50.904;11.560;2023-07-30T00:55:08;16.70;99.90
48376;DHT22;34178;50.904;11.560;2023-07-30T00:57:35;16.60;99.90
48376;DHT22;34178;50.904;11.560;2023-07-30T01:00:01;16.60;99.90
48376;DHT22;34178;50.904;11.560;2023-07-30T01:02:31;16.60;99.90
48376;DHT22;34178;50.904;11.560;2023-07-30T01:04:57;16.60;99.90
48376;DHT22;34178;50.904;11.560;2023-07-30T01:07:25;16.60;99.90
48376;DHT22;34178;50.904;11.560;2023-07-30T01:09:51;16.60;99.90
48376;DHT22;34178;50.904;11.560;2023-07-30T01:12:17;16.50;99.90
48376;DHT22;34178;50.904;11.560;2023-07-30T01:14:45;16.40;99.90
48376;DHT22;34178;50.904;11.560;2023-07-30T01:17:11;16.40;99.90
48376;DHT22;34178;50.904;11.560;2023-07-30T01:19:37;16.40;99.90
48376;DHT22;34178;50.904;11.560;2023-07-30T01:22:03;16.50;99.90
48376;DHT22;34178;50.904;11.560;2023-07-30T01:24:29;16.50;99.90
48376;DHT22;34178;50.904;11.560;2023-07-30T01:27:19;16.40;99.90
48376;DHT22;34178;50.904;11.560;2023-07-30T01:29:51;16.30;99.90
48376;DHT22;34178;50.904;11.560;2023-07-30T01:32:23;16.30;99.90
48376;DHT22;34178;50.904;11.560;2023-07-30T01:34:49;16.30;99.90
48376;DHT22;34178;50.904;11.560;2023-07-30T01:37:18;16.30;99.90
48376;DHT22;34178;50.904;11.560;2023-07-30T01:39:44;16.30;99.90
48376;DHT22;34178;50.904;11.560;2023-07-30T01:42:14;16.30;99.90
48376;DHT22;34178;50.904;11.560;2023-07-30T01:44:40;16.30;99.90
48376;DHT22;34178;50.904;11.560;2023-07-30T01:47:06;16.30;99.90
48376;DHT22;34178;50.904;11.560;2023-07-30T01:49:33;16.20;99.90
48376;DHT22;34178;50.904;11.560;2023-07-30T01:51:59;16.30;99.90
48376;DHT22;34178;50.904;11.560;2023-07-30T01:54:25;16.30;99.90
48376;DHT22;34178;50.904;11.560;2023-07-30T01:56:51;16.30;99.90
48376;DHT22;34178;50.904;11.560;2023-07-30T01:59:17;16.30;99.90
48376;DHT22;34178;50.904;11.560;2023-07-30T02:01:43;16.30;99.90
48376;DHT22;34178;50.904;11.560;2023-07-30T02:04:09;16.40;99.90
48376;DHT22;34178;50.904;11.560;2023-07-30T02:06:34;16.40;99.90
48376;DHT22;34178;50.904;11.560;2023-07-30T02:09:00;16.50;99.90
48376;DHT22;34178;50.904;11.560;2023-07-30T02:11:26;16.50;99.90
48376;DHT22;34178;50.904;11.560;2023-07-30T02:13:52;16.50;99.90
48376;DHT22;34178;50.904;11.560;2023-07-30T02:16:17;16.50;99.90
48376;DHT22;34178;50.904;11.560;2023-07-30T02:18:44;16.40;99.90
48376;DHT22;34178;50.904;11.560;2023-07-30T02:21:10;16.40;99.90
48376;DHT22;34178;50.904;11.560;2023-07-30T02:23:35;16.40;99.90
48376;DHT22;34178;50.904;11.560;2023-07-30T02:26:01;16.40;99.90
48376;DHT22;34178;50.904;11.560;2023-07-30T02:28:26;16.30;99.90
48376;DHT22;34178;50.904;11.560;2023-07-30T02:30:52;16.30;99.90
48376;DHT22;34178;50.904;11.560;2023-07-30T02:33:18;16.30;99.90
48376;DHT22;34178;50.904;11.560;2023-07-30T02:35:44;16.40;99.90
48376;DHT22;34178;50.904;11.560;2023-07-30T02:38:09;16.40;99.90
48376;DHT22;34178;50.904;11.560;2023-07-30T02:40:35;16.40;99.90
48376;DHT22;34178;50.904;11.560;2023-07-30T02:43:01;16.40;99.90
48376;DHT22;34178;50.904;11.560;2023-07-30T02:45:27;16.40;99.90
48376;DHT22;34178;50.904;11.560;2023-07-30T02:47:52;16.40;99.90
48376;DHT22;34178;50.904;11.560;2023-07-30T02:50:18;16.30;99.90
48376;DHT22;34178;50.904;11.560;2023-07-30T02:52:44;16.30;99.90
48376;DHT22;34178;50.904;11.560;2023-07-30T02:55:10;16.20;99.90
48376;DHT22;34178;50.904;11.560;2023-07-30T02:57:35;16.20;99.90
48376;DHT22;34178;50.904;11.560;2023-07-30T03:00:02;16.20;99.90
48376;DHT22;34178;50.904;11.560;2023-07-30T03:02:29;16.10;99.90
48376;DHT22;34178;50.904;11.560;2023-07-30T03:04:55;16.10;99.90
48376;DHT22;34178;50.904;11.560;2023-07-30T03:07:21;16.10;99.90
48376;DHT22;34178;50.904;11.560;2023-07-30T03:09:47;16.10;99.90
48376;DHT22;34178;50.904;11.560;2023-07-30T03:12:12;16.10;99.90
48376;DHT22;34178;50.904;11.560;2023-07-30T03:14:38;16.10;99.90
48376;DHT22;34178;50.904;11.560;2023-07-30T03:17:04;16.20;99.90
48376;DHT22;34178;50.904;11.560;2023-07-30T03:19:30;16.10;99.90
48376;DHT22;34178;50.904;11.560;2023-07-30T03:21:56;16.10;99.90
48376;DHT22;34178;50.904;11.560;2023-07-30T03:24:22;16.10;99.90
48376;DHT22;34178;50.904;11.560;2023-07-30T03:26:48;16.10;99.90
48376;DHT22;34178;50.904;11.560;2023-07-30T03:29:14;16.00;99.90
48376;DHT22;34178;50.904;11.560;2023-07-30T03:31:40;16.00;99.90
48376;DHT22;34178;50.904;11.560;2023-07-30T03:34:05;15.90;99.90
48376;DHT22;34178;50.904;11.560;2023-07-30T03:36:31;15.90;99.90
48376;DHT22;34178;50.904;11.560;2023-07-30T03:38:57;15.90;99.90
48376;DHT22;34178;50.904;11.560;2023-07-30T03:41:23;15.80;99.90
48376;DHT22;34178;50.904;11.560;2023-07-30T03:43:48;15.80;99.90
48376;DHT22;34178;50.904;11.560;2023-07-30T03:46:14;15.80;99.90
48376;DHT22;34178;50.904;11.560;2023-07-30T03:48:40;15.80;99.90
48376;DHT22;34178;50.904;11.560;2023-07-30T03:51:05;15.70;99.90
48376;DHT22;34178;50.904;11.560;2023-07-30T03:53:35;15.60;99.90
48376;DHT22;34178;50.904;11.560;2023-07-30T03:56:02;15.60;99.90
48376;DHT22;34178;50.904;11.560;2023-07-30T03:58:28;15.60;99.90
48376;DHT22;34178;50.904;11.560;2023-07-30T04:00:55;15.60;99.90
48376;DHT22;34178;50.904;11.560;2023-07-30T04:03:21;15.60;99.90
48376;DHT22;34178;50.904;11.560;2023-07-30T04:05:47;15.60;99.90
48376;DHT22;34178;50.904;11.560;2023-07-30T04:08:12;15.60;99.90
48376;DHT22;34178;50.904;11.560;2023-07-30T04:10:38;15.50;99.90
48376;DHT22;34178;50.904;11.560;2023-07-30T04:13:05;15.50;99.90
48376;DHT22;34178;50.904;11.560;2023-07-30T04:15:30;15.50;99.90
48376;DHT22;34178;50.904;11.560;2023-07-30T04:17:56;15.50;99.90
48376;DHT22;34178;50.904;11.560;2023-07-30T04:20:22;15.50;99.90
48376;DHT22;34178;50.904;11.560;2023-07-30T04:22:47;15.60;99.90
48376;DHT22;34178;50.904;11.560;2023-07-30T04:25:13;15.60;99.90
48376;DHT22;34178;50.904;11.560;2023-07-30T04:27:39;15.60;99.90
48376;DHT22;34178;50.904;11.560;2023-07-30T04:30:05;15.60;99.90
48376;DHT22;34178;50.904;11.560;2023-07-30T04:32:31;15.60;99.90
48376;DHT22;34178;50.904;11.560;2023-07-30T04:34:57;15.60;99.90
48376;DHT22;34178;50.904;11.560;2023-07-30T04:37:23;15.60;99.90
48376;DHT22;34178;50.904;11.560;2023-07-30T04:39:49;15.70;99.90
48376;DHT22;34178;50.904;11.560;2023-07-30T04:42:15;15.70;99.90
48376;DHT22;34178;50.904;11.560;2023-07-30T04:44:41;15.80;99.90
48376;DHT22;34178;50.904;11.560;2023-07-30T04:47:07;15.80;99.90
48376;DHT22;34178;50.904;11.560;2023-07-30T04:49:33;15.80;99.90
48376;DHT22;34178;50.904;11.560;2023-07-30T04:51:59;15.80;99.90
48376;DHT22;34178;50.904;11.560;2023-07-30T04:54:24;15.90;99.90
48376;DHT22;34178;50.904;11.560;2023-07-30T04:56:50;16.00;99.90
48376;DHT22;34178;50.904;11.560;2023-07-30T04:59:16;16.00;99.90
48376;DHT22;34178;50.904;11.560;2023-07-30T05:01:41;16.00;99.90
48376;DHT22;34178;50.904;11.560;2023-07-30T05:04:07;15.90;99.90
48376;DHT22;34178;50.904;11.560;2023-07-30T05:06:33;16.00;99.90
48376;DHT22;34178;50.904;11.560;2023-07-30T05:08:59;16.00;99.90
48376;DHT22;34178;50.904;11.560;2023-07-30T05:11:24;16.10;99.90
48376;DHT22;34178;50.904;11.560;2023-07-30T05:13:50;16.10;99.90
48376;DHT22;34178;50.904;11.560;2023-07-30T05:16:16;16.20;99.90
48376;DHT22;34178;50.904;11.560;2023-07-30T05:18:41;16.30;99.90
48376;DHT22;34178;50.904;11.560;2023-07-30T05:21:07;16.30;99.90
48376;DHT22;34178;50.904;11.560;2023-07-30T05:23:33;16.40;99.90
48376;DHT22;34178;50.904;11.560;2023-07-30T05:25:58;16.50;99.90
48376;DHT22;34178;50.904;11.560;2023-07-30T05:28:24;16.50;99.90
48376;DHT22;34178;50.904;11.560;2023-07-30T05:30:50;16.60;99.90
48376;DHT22;34178;50.904;11.560;2023-07-30T05:33:15;16.60;99.90
48376;DHT22;34178;50.904;11.560;2023-07-30T05:35:41;16.60;99.90
48376;DHT22;34178;50.904;11.560;2023-07-30T05:38:07;16.70;99.90
48376;DHT22;34178;50.904;11.560;2023-07-30T05:40:33;16.80;99.90
48376;DHT22;34178;50.904;11.560;2023-07-30T05:42:59;16.90;99.90
48376;DHT22;34178;50.904;11.560;2023-07-30T05:45:26;17.00;99.90
48376;DHT22;34178;50.904;11.560;2023-07-30T05:47:52;17.10;99.90
48376;DHT22;34178;50.904;11.560;2023-07-30T05:50:17;17.30;99.90
48376;DHT22;34178;50.904;11.560;2023-07-30T05:52:43;17.50;99.90
48376;DHT22;34178;50.904;11.560;2023-07-30T05:55:09;17.60;99.90
48376;DHT22;34178;50.904;11.560;2023-07-30T05:57:34;17.80;99.90
48376;DHT22;34178;50.904;11.560;2023-07-30T06:00:00;17.90;99.90
48376;DHT22;34178;50.904;11.560;2023-07-30T06:02:26;18.00;99.90
48376;DHT22;34178;50.904;11.560;2023-07-30T06:04:51;18.20;99.90
48376;DHT22;34178;50.904;11.560;2023-07-30T06:07:17;18.30;99.90
48376;DHT22;34178;50.904;11.560;2023-07-30T06:09:43;18.60;99.90
48376;DHT22;34178;50.904;11.560;2023-07-30T06:12:10;18.90;99.90
48376;DHT22;34178;50.904;11.560;2023-07-30T06:14:36;19.00;99.90
48376;DHT22;34178;50.904;11.560;2023-07-30T06:17:02;19.10;99.90
48376;DHT22;34178;50.904;11.560;2023-07-30T06:19:27;19.20;99.90
48376;DHT22;34178;50.904;11.560;2023-07-30T06:21:53;19.30;99.90
48376;DHT22;34178;50.904;11.560;2023-07-30T06:24:19;19.30;99.90
48376;DHT22;34178;50.904;11.560;2023-07-30T06:26:44;19.40;99.90
48376;DHT22;34178;50.904;11.560;2023-07-30T06:29:10;19.50;99.90
48376;DHT22;34178;50.904;11.560;2023-07-30T06:31:36;19.60;99.90
48376;DHT22;34178;50.904;11.560;2023-07-30T06:34:01;19.70;99.90
48376;DHT22;34178;50.904;11.560;2023-07-30T06:36:27;19.70;99.90
48376;DHT22;34178;50.904;11.560;2023-07-30T06:38:53;19.80;99.90
48376;DHT22;34178;50.904;11.560;2023-07-30T06:41:18;19.80;99.90
48376;DHT22;34178;50.904;11.560;2023-07-30T06:43:44;19.80;99.90
48376;DHT22;34178;50.904;11.560;2023-07-30T06:46:09;19.80;99.90
48376;DHT22;34178;50.904;11.560;2023-07-30T06:48:35;19.80;99.90
48376;DHT22;34178;50.904;11.560;2023-07-30T06:51:01;19.80;99.90
48376;DHT22;34178;50.904;11.560;2023-07-30T06:53:26;19.70;99.90
48376;DHT22;34178;50.904;11.560;2023-07-30T06:55:52;19.70;99.90
48376;DHT22;34178;50.904;11.560;2023-07-30T06:58:18;19.70;99.90
48376;DHT22;34178;50.904;11.560;2023-07-30T07:00:43;19.50;99.90
48376;DHT22;34178;50.904;11.560;2023-07-30T07:03:09;19.50;99.90
48376;DHT22;34178;50.904;11.560;2023-07-30T07:05:35;19.50;99.90
48376;DHT22;34178;50.904;11.560;2023-07-30T07:08:00;19.60;99.90
48376;DHT22;34178;50.904;11.560;2023-07-30T07:10:26;19.70;99.90
48376;DHT22;34178;50.904;11.560;2023-07-30T07:12:52;19.80;99.90
48376;DHT22;34178;50.904;11.560;2023-07-30T07:15:17;19.90;99.90
48376;DHT22;34178;50.904;11.560;2023-07-30T07:17:43;20.00;99.90
48376;DHT22;34178;50.904;11.560;2023-07-30T07:20:09;20.00;99.90
48376;DHT22;34178;50.904;11.560;2023-07-30T07:22:36;20.10;99.90
48376;DHT22;34178;50.904;11.560;2023-07-30T07:25:01;20.20;99.90
48376;DHT22;34178;50.904;11.560;2023-07-30T07:27:27;20.20;99.90
48376;DHT22;34178;50.904;11.560;2023-07-30T07:29:53;20.30;99.90
48376;DHT22;34178;50.904;11.560;2023-07-30T07:32:19;20.40;99.90
48376;DHT22;34178;50.904;11.560;2023-07-30T07:34:48;20.40;99.90
48376;DHT22;34178;50.904;11.560;2023-07-30T07:37:15;20.30;99.90
48376;DHT22;34178;50.904;11.560;2023-07-30T07:39:42;20.30;99.90
48376;DHT22;34178;50.904;11.560;2023-07-30T07:42:08;20.50;99.90
48376;DHT22;34178;50.904;11.560;2023-07-30T07:44:34;20.60;99.90
48376;DHT22;34178;50.904;11.560;2023-07-30T07:47:00;20.70;99.90
48376;DHT22;34178;50.904;11.560;2023-07-30T07:49:25;20.70;99.90
48376;DHT22;34178;50.904;11.560;2023-07-30T07:51:51;20.90;99.90
48376;DHT22;34178;50.904;11.560;2023-07-30T07:54:17;20.90;99.90
48376;DHT22;34178;50.904;11.560;2023-07-30T07:56:42;21.10;99.90
48376;DHT22;34178;50.904;11.560;2023-07-30T07:59:08;21.20;99.90
48376;DHT22;34178;50.904;11.560;2023-07-30T08:01:34;21.40;99.90
48376;DHT22;34178;50.904;11.560;2023-07-30T08:03:59;21.60;99.90
48376;DHT22;34178;50.904;11.560;2023-07-30T08:06:25;21.60;99.90
48376;DHT22;34178;50.904;11.560;2023-07-30T08:08:51;21.70;99.90
48376;DHT22;34178;50.904;11.560;2023-07-30T08:11:17;21.80;99.90
48376;DHT22;34178;50.904;11.560;2023-07-30T08:13:42;21.70;99.90
48376;DHT22;34178;50.904;11.560;2023-07-30T08:16:08;21.70;99.90
48376;DHT22;34178;50.904;11.560;2023-07-30T08:18:34;21.80;99.90
48376;DHT22;34178;50.904;11.560;2023-07-30T08:21:00;21.90;99.90
48376;DHT22;34178;50.904;11.560;2023-07-30T08:23:26;22.00;99.90
48376;DHT22;34178;50.904;11.560;2023-07-30T08:25:52;22.10;99.90
48376;DHT22;34178;50.904;11.560;2023-07-30T08:28:18;22.10;99.90
48376;DHT22;34178;50.904;11.560;2023-07-30T10:40:17;25.00;93.80
48376;DHT22;34178;50.904;11.560;2023-07-30T10:42:43;25.00;93.30
48376;DHT22;34178;50.904;11.560;2023-07-30T10:45:09;25.20;93.40
48376;DHT22;34178;50.904;11.560;2023-07-30T10:47:35;25.40;92.50
48376;DHT22;34178;50.904;11.560;2023-07-30T10:50:02;25.50;93.20
48376;DHT22;34178;50.904;11.560;2023-07-30T10:52:28;25.30;92.40
48376;DHT22;34178;50.904;11.560;2023-07-30T10:55:00;25.30;91.50
48376;DHT22;34178;50.904;11.560;2023-07-30T10:57:30;25.30;91.50
48376;DHT22;34178;50.904;11.560;2023-07-30T10:59:58;25.30;92.00
48376;DHT22;34178;50.904;11.560;2023-07-30T11:02:24;25.50;92.30
48376;DHT22;34178;50.904;11.560;2023-07-30T11:04:50;25.70;91.20
48376;DHT22;34178;50.904;11.560;2023-07-30T11:07:17;26.00;91.20
48376;DHT22;34178;50.904;11.560;2023-07-30T11:09:44;26.00;91.50
48376;DHT22;34178;50.904;11.560;2023-07-30T11:12:10;26.00;91.00
48376;DHT22;34178;50.904;11.560;2023-07-30T11:14:36;26.20;90.20
48376;DHT22;34178;50.904;11.560;2023-07-30T11:17:01;26.30;90.20
48376;DHT22;34178;50.904;11.560;2023-07-30T11:19:29;26.40;90.80
48376;DHT22;34178;50.904;11.560;2023-07-30T11:21:56;26.50;90.20
48376;DHT22;34178;50.904;11.560;2023-07-30T11:24:23;26.60;90.00
48376;DHT22;34178;50.904;11.560;2023-07-30T11:27:01;26.60;90.60
48376;DHT22;34178;50.904;11.560;2023-07-30T11:29:27;26.70;90.70
48376;DHT22;34178;50.904;11.560;2023-07-30T11:31:57;26.20;90.10
48376;DHT22;34178;50.904;11.560;2023-07-30T11:34:25;25.80;90.20
48376;DHT22;34178;50.904;11.560;2023-07-30T11:36:51;25.60;90.50
48376;DHT22;34178;50.904;11.560;2023-07-30T11:39:17;25.50;90.90
48376;DHT22;34178;50.904;11.560;2023-07-30T11:41:43;25.50;90.70
48376;DHT22;34178;50.904;11.560;2023-07-30T11:44:29;25.40;90.90
48376;DHT22;34178;50.904;11.560;2023-07-30T11:46:55;25.20;91.10
48376;DHT22;34178;50.904;11.560;2023-07-30T11:49:21;25.10;91.20
48376;DHT22;34178;50.904;11.560;2023-07-30T11:51:47;25.10;90.90
48376;DHT22;34178;50.904;11.560;2023-07-30T11:54:21;25.10;91.00
48376;DHT22;34178;50.904;11.560;2023-07-30T11:56:54;25.00;91.20
48376;DHT22;34178;50.904;11.560;2023-07-30T11:59:20;24.90;91.20
48376;DHT22;34178;50.904;11.560;2023-07-30T12:01:47;24.90;91.00
48376;DHT22;34178;50.904;11.560;2023-07-30T12:04:12;24.80;90.90
48376;DHT22;34178;50.904;11.560;2023-07-30T12:06:42;24.70;91.10
48376;DHT22;34178;50.904;11.560;2023-07-30T12:09:12;24.60;91.40
48376;DHT22;34178;50.904;11.560;2023-07-30T12:11:46;24.60;91.70
48376;DHT22;34178;50.904;11.560;2023-07-30T12:14:12;24.60;91.70
48376;DHT22;34178;50.904;11.560;2023-07-30T12:16:37;24.50;91.80
48376;DHT22;34178;50.904;11.560;2023-07-30T12:19:04;24.50;91.40
48376;DHT22;34178;50.904;11.560;2023-07-30T12:21:29;24.30;92.20
48376;DHT22;34178;50.904;11.560;2023-07-30T12:23:55;24.00;95.00
48376;DHT22;34178;50.904;11.560;2023-07-30T12:26:20;23.60;95.70
48376;DHT22;34178;50.904;11.560;2023-07-30T12:28:46;23.50;97.20
48376;DHT22;34178;50.904;11.560;2023-07-30T12:31:12;23.30;99.00
48376;DHT22;34178;50.904;11.560;2023-07-30T12:33:37;23.20;99.90
48376;DHT22;34178;50.904;11.560;2023-07-30T12:36:03;23.10;99.90
48376;DHT22;34178;50.904;11.560;2023-07-30T12:38:29;22.90;99.90
48376;DHT22;34178;50.904;11.560;2023-07-30T12:40:55;22.80;99.90
48376;DHT22;34178;50.904;11.560;2023-07-30T12:43:20;22.80;99.90
48376;DHT22;34178;50.904;11.560;2023-07-30T12:45:47;22.90;99.90
48376;DHT22;34178;50.904;11.560;2023-07-30T12:48:13;23.00;99.90
48376;DHT22;34178;50.904;11.560;2023-07-30T12:50:39;23.10;99.90
48376;DHT22;34178;50.904;11.560;2023-07-30T12:53:04;23.40;99.90
48376;DHT22;34178;50.904;11.560;2023-07-30T12:55:30;23.90;99.90
48376;DHT22;34178;50.904;11.560;2023-07-30T12:57:56;25.30;99.80
48376;DHT22;34178;50.904;11.560;2023-07-30T13:00:21;26.20;99.50
48376;DHT22;34178;50.904;11.560;2023-07-30T13:02:47;26.50;99.20
48376;DHT22;34178;50.904;11.560;2023-07-30T13:05:13;26.60;94.90
48376;DHT22;34178;50.904;11.560;2023-07-30T13:07:40;26.20;95.90
48376;DHT22;34178;50.904;11.560;2023-07-30T13:10:07;26.00;95.20
48376;DHT22;34178;50.904;11.560;2023-07-30T13:12:33;25.80;96.20
48376;DHT22;34178;50.904;11.560;2023-07-30T13:14:59;25.30;95.70
48376;DHT22;34178;50.904;11.560;2023-07-30T13:17:25;25.20;96.20
48376;DHT22;34178;50.904;11.560;2023-07-30T13:19:51;25.80;95.70
48376;DHT22;34178;50.904;11.560;2023-07-30T13:22:17;26.10;94.60
48376;DHT22;34178;50.904;11.560;2023-07-30T13:24:43;26.10;95.10
48376;DHT22;34178;50.904;11.560;2023-07-30T13:27:08;26.50;94.30
48376;DHT22;34178;50.904;11.560;2023-07-30T13:29:34;26.80;93.20
48376;DHT22;34178;50.904;11.560;2023-07-30T13:32:00;27.10;92.40
48376;DHT22;34178;50.904;11.560;2023-07-30T13:34:26;27.70;91.40
48376;DHT22;34178;50.904;11.560;2023-07-30T13:36:51;27.30;90.70
48376;DHT22;34178;50.904;11.560;2023-07-30T13:39:17;26.40;92.00
48376;DHT22;34178;50.904;11.560;2023-07-30T13:41:43;25.70;91.90
48376;DHT22;34178;50.904;11.560;2023-07-30T13:44:09;25.00;92.80
48376;DHT22;34178;50.904;11.560;2023-07-30T13:46:37;24.60;93.50
48376;DHT22;34178;50.904;11.560;2023-07-30T13:49:03;24.30;94.00
48376;DHT22;34178;50.904;11.560;2023-07-30T13:51:29;24.10;94.50
48376;DHT22;34178;50.904;11.560;2023-07-30T13:54:01;23.80;95.00
48376;DHT22;34178;50.904;11.560;2023-07-30T13:56:30;23.20;96.40
48376;DHT22;34178;50.904;11.560;2023-07-30T13:58:56;21.60;99.90
48376;DHT22;34178;50.904;11.560;2023-07-30T14:01:22;18.90;99.90
48376;DHT22;34178;50.904;11.560;2023-07-30T14:03:47;17.60;99.90
48376;DHT22;34178;50.904;11.560;2023-07-30T14:06:13;16.90;99.90
48376;DHT22;34178;50.904;11.560;2023-07-30T14:08:39;16.60;99.90
48376;DHT22;34178;50.904;11.560;2023-07-30T14:11:05;16.60;99.90
48376;DHT22;34178;50.904;11.560;2023-07-30T14:13:30;16.60;99.90
48376;DHT22;34178;50.904;11.560;2023-07-30T14:15:56;16.50;99.90
48376;DHT22;34178;50.904;11.560;2023-07-30T14:18:23;16.40;99.90
48376;DHT22;34178;50.904;11.560;2023-07-30T14:20:49;16.40;99.90
48376;DHT22;34178;50.904;11.560;2023-07-30T14:23:15;16.60;99.90
48376;DHT22;34178;50.904;11.560;2023-07-30T14:25:40;16.70;99.90
48376;DHT22;34178;50.904;11.560;2023-07-30T14:28:06;16.90;99.90
48376;DHT22;34178;50.904;11.560;2023-07-30T14:30:32;16.90;99.90
48376;DHT22;34178;50.904;11.560;2023-07-30T14:32:59;17.30;99.90
48376;DHT22;34178;50.904;11.560;2023-07-30T14:35:25;17.70;99.90
48376;DHT22;34178;50.904;11.560;2023-07-30T14:37:51;17.90;99.90
48376;DHT22;34178;50.904;11.560;2023-07-30T14:40:16;18.20;99.90
48376;DHT22;34178;50.904;11.560;2023-07-30T14:42:43;17.80;99.90
48376;DHT22;34178;50.904;11.560;2023-07-30T14:45:09;17.90;99.90
48376;DHT22;34178;50.904;11.560;2023-07-30T14:47:35;18.50;99.90
48376;DHT22;34178;50.904;11.560;2023-07-30T14:50:01;18.70;99.90
48376;DHT22;34178;50.904;11.560;2023-07-30T14:52:27;19.30;99.90
48376;DHT22;34178;50.904;11.560;2023-07-30T14:54:53;19.40;99.90
48376;DHT22;34178;50.904;11.560;2023-07-30T14:57:19;19.70;99.90
48376;DHT22;34178;50.904;11.560;2023-07-30T14:59:44;20.60;99.90
48376;DHT22;34178;50.904;11.560;2023-07-30T15:02:11;21.50;99.90
48376;DHT22;34178;50.904;11.560;2023-07-30T15:04:38;21.40;99.90
48376;DHT22;34178;50.904;11.560;2023-07-30T15:07:04;20.90;99.90
48376;DHT22;34178;50.904;11.560;2023-07-30T15:09:30;21.10;99.90
48376;DHT22;34178;50.904;11.560;2023-07-30T15:12:00;22.10;99.90
48376;DHT22;34178;50.904;11.560;2023-07-30T15:14:26;23.30;99.90
48376;DHT22;34178;50.904;11.560;2023-07-30T15:16:52;23.30;99.90
48376;DHT22;34178;50.904;11.560;2023-07-30T15:19:17;23.20;99.90
48376;DHT22;34178;50.904;11.560;2023-07-30T15:21:43;23.80;99.90
48376;DHT22;34178;50.904;11.560;2023-07-30T15:24:09;25.70;99.90
48376;DHT22;34178;50.904;11.560;2023-07-30T15:26:34;26.90;99.90
48376;DHT22;34178;50.904;11.560;2023-07-30T15:29:00;28.70;99.90
48376;DHT22;34178;50.904;11.560;2023-07-30T15:31:27;31.60;97.60
48376;DHT22;34178;50.904;11.560;2023-07-30T15:33:52;33.20;95.40
48376;DHT22;34178;50.904;11.560;2023-07-30T15:36:19;32.30;95.20
48376;DHT22;34178;50.904;11.560;2023-07-30T15:38:44;31.30;92.80
48376;DHT22;34178;50.904;11.560;2023-07-30T15:41:10;30.80;92.10
48376;DHT22;34178;50.904;11.560;2023-07-30T15:43:36;29.70;90.30
48376;DHT22;34178;50.904;11.560;2023-07-30T15:46:05;28.40;92.90
48376;DHT22;34178;50.904;11.560;2023-07-30T15:48:31;28.60;93.20
48376;DHT22;34178;50.904;11.560;2023-07-30T15:51:01;28.40;92.50
48376;DHT22;34178;50.904;11.560;2023-07-30T15:53:27;27.20;93.40
48376;DHT22;34178;50.904;11.560;2023-07-30T15:55:53;27.30;93.00
48376;DHT22;34178;50.904;11.560;2023-07-30T15:58:19;30.70;92.10
48376;DHT22;34178;50.904;11.560;2023-07-30T16:00:45;33.20;88.20
48376;DHT22;34178;50.904;11.560;2023-07-30T16:03:11;35.90;84.90
48376;DHT22;34178;50.904;11.560;2023-07-30T16:05:37;37.00;74.50
48376;DHT22;34178;50.904;11.560;2023-07-30T16:08:03;38.50;71.60
48376;DHT22;34178;50.904;11.560;2023-07-30T16:10:30;39.00;66.40
48376;DHT22;34178;50.904;11.560;2023-07-30T16:12:55;39.40;67.10
48376;DHT22;34178;50.904;11.560;2023-07-30T16:15:25;40.00;64.40
48376;DHT22;34178;50.904;11.560;2023-07-30T16:17:51;40.60;60.90
48376;DHT22;34178;50.904;11.560;2023-07-30T16:20:16;40.60;62.60
48376;DHT22;34178;50.904;11.560;2023-07-30T16:22:43;42.50;63.20
48376;DHT22;34178;50.904;11.560;2023-07-30T16:25:09;43.40;61.40
48376;DHT22;34178;50.904;11.560;2023-07-30T16:27:35;44.20;56.60
48376;DHT22;34178;50.904;11.560;2023-07-30T16:30:01;44.20;55.20
48376;DHT22;34178;50.904;11.560;2023-07-30T16:32:26;41.50;53.90
48376;DHT22;34178;50.904;11.560;2023-07-30T16:34:52;40.60;55.00
48376;DHT22;34178;50.904;11.560;2023-07-30T16:37:18;41.50;55.10
48376;DHT22;34178;50.904;11.560;2023-07-30T16:39:44;42.30;56.80
48376;DHT22;34178;50.904;11.560;2023-07-30T16:42:12;42.40;53.20
48376;DHT22;34178;50.904;11.560;2023-07-30T16:44:38;42.50;52.20
48376;DHT22;34178;50.904;11.560;2023-07-30T16:47:04;42.00;51.90
48376;DHT22;34178;50.904;11.560;2023-07-30T16:49:29;40.70;52.80
48376;DHT22;34178;50.904;11.560;2023-07-30T16:51:55;41.90;51.50
48376;DHT22;34178;50.904;11.560;2023-07-30T16:54:21;41.20;52.60
48376;DHT22;34178;50.904;11.560;2023-07-30T16:56:46;40.30;51.30
48376;DHT22;34178;50.904;11.560;2023-07-30T16:59:12;39.30;51.30
48376;DHT22;34178;50.904;11.560;2023-07-30T17:01:38;39.30;52.40
48376;DHT22;34178;50.904;11.560;2023-07-30T17:04:03;39.00;51.20
48376;DHT22;34178;50.904;11.560;2023-07-30T17:06:30;38.70;52.70
48376;DHT22;34178;50.904;11.560;2023-07-30T17:08:55;38.10;53.40
48376;DHT22;34178;50.904;11.560;2023-07-30T17:11:21;37.20;55.30
48376;DHT22;34178;50.904;11.560;2023-07-30T17:13:47;37.10;54.90
48376;DHT22;34178;50.904;11.560;2023-07-30T17:16:12;36.40;53.70
48376;DHT22;34178;50.904;11.560;2023-07-30T17:18:38;35.10;54.60